createdAt,value
2019-01-10T00:03:46.617Z,2.99
2019-01-10T00:06:15.146Z,2.94
2019-01-10T00:08:43.699Z,2.98
2019-01-10T00:11:12.153Z,2.94
2019-01-10T00:13:40.719Z,2.95
2019-01-10T00:16:09.305Z,2.95
2019-01-10T00:18:37.857Z,2.98
2019-01-10T00:21:06.567Z,2.93
2019-01-10T00:23:35.007Z,2.93
2019-01-10T00:26:03.843Z,2.95
2019-01-10T00:28:32.403Z,2.93
2019-01-10T00:31:00.949Z,2.90
2019-01-10T00:33:29.804Z,2.92
2019-01-10T00:35:58.363Z,2.90
2019-01-10T00:38:26.963Z,2.84
2019-01-10T00:40:55.458Z,2.88
2019-01-10T00:43:23.988Z,2.85
2019-01-10T00:45:52.569Z,2.83
2019-01-10T00:48:21.112Z,2.82
2019-01-10T00:53:38.766Z,2.80
2019-01-10T00:56:07.335Z,2.79
2019-01-10T00:58:35.866Z,2.80
2019-01-10T01:01:04.434Z,2.87
2019-01-10T01:03:33.073Z,2.82
2019-01-10T01:06:01.540Z,2.83
2019-01-10T01:08:30.101Z,2.85
2019-01-10T01:10:58.638Z,2.87
2019-01-10T01:13:27.142Z,2.81
2019-01-10T01:15:55.636Z,2.84
2019-01-10T01:18:24.146Z,2.90
2019-01-10T01:20:52.705Z,2.87
2019-01-10T01:23:21.319Z,2.92
2019-01-10T01:25:49.833Z,2.91
2019-01-10T01:28:18.640Z,2.93
2019-01-10T01:30:47.114Z,2.90
2019-01-10T01:33:15.592Z,2.90
2019-01-10T01:35:44.084Z,2.90
2019-01-10T01:38:12.650Z,2.87
2019-01-10T01:40:41.068Z,2.91
2019-01-10T01:43:09.639Z,2.90
2019-01-10T01:45:38.140Z,2.92
2019-01-10T01:48:06.597Z,2.89
2019-01-10T01:50:35.588Z,2.92
2019-01-10T01:53:04.165Z,2.92
2019-01-10T01:55:32.801Z,2.90
2019-01-10T01:58:01.336Z,2.91
2019-01-10T02:00:29.909Z,2.89
2019-01-10T02:02:58.392Z,2.91
2019-01-10T02:05:27.000Z,2.90
2019-01-10T02:07:55.805Z,2.88
2019-01-10T02:10:45.225Z,2.82
2019-01-10T02:13:16.845Z,2.92
2019-01-10T02:15:43.795Z,2.85
2019-01-10T02:18:12.281Z,2.81
2019-01-10T02:20:41.087Z,2.79
2019-01-10T02:23:09.620Z,2.81
2019-01-10T02:25:38.118Z,2.77
2019-01-10T02:28:06.665Z,2.79
2019-01-10T02:30:41.767Z,2.77
2019-01-10T02:33:05.627Z,2.77
2019-01-10T02:35:34.148Z,2.76
2019-01-10T02:38:02.637Z,2.80
2019-01-10T02:40:31.101Z,2.79
2019-01-10T02:42:59.602Z,2.82
2019-01-10T02:45:28.082Z,2.77
2019-01-10T02:47:56.844Z,2.77
2019-01-10T02:50:25.345Z,2.76
2019-01-10T02:52:53.898Z,2.79
2019-01-10T02:55:22.406Z,2.79
2019-01-10T02:57:51.054Z,2.77
2019-01-10T03:00:21.550Z,2.79
2019-01-10T03:02:50.199Z,2.76
2019-01-10T03:05:18.873Z,2.75
2019-01-10T03:07:47.394Z,2.76
2019-01-10T03:10:21.424Z,2.76
2019-01-10T03:12:49.922Z,2.78
2019-01-10T03:15:18.454Z,2.78
2019-01-10T03:17:46.954Z,2.75
2019-01-10T03:20:22.786Z,2.75
2019-01-10T03:22:51.429Z,2.76
2019-01-10T03:25:20.236Z,2.78
2019-01-10T03:27:48.791Z,2.78
2019-01-10T03:30:18.789Z,2.81
2019-01-10T03:32:47.335Z,2.75
2019-01-10T03:35:15.787Z,2.77
2019-01-10T03:37:44.471Z,2.76
2019-01-10T03:40:18.276Z,2.73
2019-01-10T03:42:47.008Z,2.68
2019-01-10T03:45:17.468Z,2.70
2019-01-10T03:47:46.017Z,2.73
2019-01-10T03:50:16.482Z,2.76
2019-01-10T03:52:45.051Z,2.71
2019-01-10T03:55:13.894Z,2.64
2019-01-10T03:57:42.464Z,2.61
2019-01-10T04:00:19.409Z,2.68
2019-01-10T04:02:48.057Z,2.70
2019-01-10T04:05:16.573Z,2.68
2019-01-10T04:07:45.136Z,2.69
2019-01-10T04:10:15.169Z,2.67
2019-01-10T04:12:43.622Z,2.71
2019-01-10T04:15:13.700Z,2.67
2019-01-10T04:17:42.255Z,2.67
2019-01-10T04:20:13.564Z,2.63
2019-01-10T04:22:42.192Z,2.68
2019-01-10T04:25:13.090Z,2.62
2019-01-10T04:27:41.620Z,2.64
2019-01-10T04:30:16.130Z,2.62
2019-01-10T04:32:44.715Z,2.64
2019-01-10T04:35:13.240Z,2.68
2019-01-10T04:37:41.713Z,2.68
2019-01-10T04:40:13.465Z,2.67
2019-01-10T04:42:41.933Z,2.68
2019-01-10T04:45:10.496Z,2.68
2019-01-10T04:47:39.025Z,2.66
2019-01-10T04:50:10.371Z,2.62
2019-01-10T04:52:38.927Z,2.62
2019-01-10T04:55:08.773Z,2.61
2019-01-10T04:57:37.423Z,2.61
2019-01-10T05:00:17.547Z,2.58
2019-01-10T05:02:46.220Z,2.55
2019-01-10T05:05:14.678Z,2.56
2019-01-10T05:07:43.241Z,2.53
2019-01-10T05:10:11.962Z,2.49
2019-01-10T05:12:41.824Z,2.53
2019-01-10T05:15:12.696Z,2.51
2019-01-10T05:17:41.319Z,2.49
2019-01-10T05:20:12.890Z,2.48
2019-01-10T05:22:41.552Z,2.52
2019-01-10T05:25:10.084Z,2.51
2019-01-10T05:27:38.568Z,2.47
2019-01-10T05:30:10.245Z,2.41
2019-01-10T05:32:38.803Z,2.41
2019-01-10T05:35:07.495Z,2.40
2019-01-10T05:37:36.172Z,2.40
2019-01-10T05:40:07.124Z,2.41
2019-01-10T05:42:35.651Z,2.46
2019-01-10T05:45:06.212Z,2.43
2019-01-10T05:47:34.739Z,2.39
2019-01-10T05:50:03.566Z,2.39
2019-01-10T05:52:32.490Z,2.41
2019-01-10T05:55:01.043Z,2.45
2019-01-10T05:57:29.563Z,2.40
2019-01-10T05:59:58.094Z,2.40
2019-01-10T06:02:26.594Z,2.37
2019-01-10T06:04:55.240Z,2.34
2019-01-10T06:07:23.868Z,2.37
2019-01-10T06:09:52.313Z,2.39
2019-01-10T06:12:20.951Z,2.37
2019-01-10T06:14:49.546Z,2.37
2019-01-10T06:17:18.088Z,2.34
2019-01-10T06:19:46.726Z,2.34
2019-01-10T06:22:15.372Z,2.35
2019-01-10T06:24:43.966Z,2.40
2019-01-10T06:27:12.804Z,2.32
2019-01-10T06:29:41.407Z,2.36
2019-01-10T06:32:10.045Z,2.32
2019-01-10T06:34:38.606Z,2.38
2019-01-10T06:37:07.110Z,2.40
2019-01-10T06:39:35.672Z,2.35
2019-01-10T06:42:04.182Z,2.39
2019-01-10T06:44:32.733Z,2.36
2019-01-10T06:47:01.352Z,2.38
2019-01-10T06:49:29.938Z,2.38
2019-01-10T06:51:58.629Z,2.33
2019-01-10T06:54:27.180Z,2.32
2019-01-10T06:56:55.730Z,2.36
2019-01-10T06:59:24.717Z,2.36
2019-01-10T07:01:53.565Z,2.34
2019-01-10T07:04:22.080Z,2.33
2019-01-10T07:06:50.664Z,2.33
2019-01-10T07:09:19.273Z,2.39
2019-01-10T07:11:47.847Z,2.30
2019-01-10T07:14:16.409Z,2.32
2019-01-10T07:16:53.330Z,2.33
2019-01-10T07:19:18.521Z,2.26
2019-01-10T07:21:55.781Z,2.29
2019-01-10T07:24:25.042Z,2.31
2019-01-10T07:26:56.653Z,2.34
2019-01-10T07:29:25.179Z,2.31
2019-01-10T07:31:56.742Z,2.36
2019-01-10T07:34:25.340Z,2.38
2019-01-10T07:36:53.857Z,2.32
2019-01-10T07:39:22.427Z,2.34
2019-01-10T07:41:50.940Z,2.26
2019-01-10T07:44:22.592Z,2.24
2019-01-10T07:46:51.147Z,2.29
2019-01-10T07:49:22.875Z,2.27
2019-01-10T07:51:51.489Z,2.25
2019-01-10T07:54:19.991Z,2.20
2019-01-10T07:56:48.438Z,2.21
2019-01-10T07:59:16.984Z,2.22
2019-01-10T08:01:45.501Z,2.25
2019-01-10T08:04:13.986Z,2.31
2019-01-10T08:06:42.533Z,2.29
2019-01-10T08:09:11.107Z,2.27
2019-01-10T08:11:40.202Z,2.35
2019-01-10T08:14:09.817Z,2.29
2019-01-10T08:16:38.445Z,2.28
2019-01-10T08:19:07.143Z,2.20
2019-01-10T08:21:35.827Z,2.19
2019-01-10T08:24:04.372Z,2.12
2019-01-10T08:26:33.002Z,2.14
2019-01-10T08:29:01.653Z,2.11
2019-01-10T08:31:30.258Z,2.16
2019-01-10T08:33:58.748Z,2.11
2019-01-10T08:36:32.317Z,2.08
2019-01-10T08:38:57.910Z,2.19
2019-01-10T08:41:26.467Z,2.24
2019-01-10T08:43:55.087Z,2.25
2019-01-10T08:46:23.694Z,2.24
2019-01-10T08:48:52.139Z,2.21
2019-01-10T08:51:20.962Z,2.25
2019-01-10T08:53:54.092Z,2.25
2019-01-10T08:56:19.660Z,2.25
2019-01-10T08:58:48.238Z,2.21
2019-01-10T09:01:16.776Z,2.21
2019-01-10T09:03:45.334Z,2.23
2019-01-10T09:06:13.924Z,2.23
2019-01-10T09:08:42.477Z,2.18
2019-01-10T09:11:11.022Z,2.27
2019-01-10T09:13:39.968Z,2.25
2019-01-10T09:16:08.574Z,2.23
2019-01-10T09:18:37.045Z,2.24
2019-01-10T09:21:05.682Z,2.30
2019-01-10T09:23:34.188Z,2.29
2019-01-10T09:26:02.782Z,2.28
2019-01-10T09:28:31.367Z,2.35
2019-01-10T09:31:00.021Z,2.45
2019-01-10T09:33:28.485Z,2.54
2019-01-10T09:35:57.245Z,2.57
2019-01-10T09:38:25.790Z,2.61
2019-01-10T09:40:54.373Z,2.65
2019-01-10T09:43:22.847Z,2.73
2019-01-10T09:45:51.406Z,2.73
2019-01-10T09:48:19.871Z,2.77
2019-01-10T09:50:48.433Z,2.81
2019-01-10T09:53:17.196Z,2.77
2019-01-10T09:55:45.745Z,2.84
2019-01-10T09:58:14.390Z,2.90
2019-01-10T10:00:42.914Z,2.92
2019-01-10T10:03:11.473Z,3.00
2019-01-10T10:05:40.057Z,3.05
2019-01-10T10:08:08.643Z,3.02
2019-01-10T10:10:37.193Z,2.99
2019-01-10T10:13:08.551Z,2.85
2019-01-10T10:15:37.072Z,2.82
2019-01-10T10:18:05.708Z,2.78
2019-01-10T10:20:34.231Z,2.72
2019-01-10T10:23:02.841Z,2.77
2019-01-10T10:25:31.530Z,2.71
2019-01-10T10:27:59.985Z,2.68
2019-01-10T10:30:28.630Z,2.65
2019-01-10T10:32:57.098Z,2.64
2019-01-10T10:35:25.637Z,2.60
2019-01-10T10:37:54.186Z,2.56
2019-01-10T10:40:22.849Z,2.53
2019-01-10T10:42:51.303Z,2.54
2019-01-10T10:45:20.356Z,2.59
2019-01-10T10:47:49.118Z,2.65
2019-01-10T10:50:20.387Z,2.65
2019-01-10T10:52:48.960Z,2.68
2019-01-10T10:55:17.501Z,2.72
2019-01-10T10:57:46.105Z,2.81
2019-01-10T11:00:18.816Z,2.92
2019-01-10T11:02:47.458Z,2.98
2019-01-10T11:05:16.327Z,3.08
2019-01-10T11:07:44.799Z,3.15
2019-01-10T11:10:15.967Z,3.23
2019-01-10T11:12:44.485Z,3.31
2019-01-10T11:15:13.098Z,3.32
2019-01-10T11:17:41.753Z,3.31
2019-01-10T11:20:18.468Z,3.35
2019-01-10T11:22:47.087Z,3.37
2019-01-10T11:25:17.688Z,3.34
2019-01-10T11:27:46.273Z,3.35
2019-01-10T11:30:17.165Z,3.42
2019-01-10T11:32:45.824Z,3.41
2019-01-10T11:35:14.623Z,3.57
2019-01-10T11:37:43.276Z,3.60
2019-01-10T11:40:16.967Z,3.61
2019-01-10T11:42:45.494Z,3.54
2019-01-10T11:45:16.465Z,3.42
2019-01-10T11:47:44.992Z,3.35
2019-01-10T11:50:15.398Z,3.32
2019-01-10T11:52:44.351Z,3.38
2019-01-10T11:55:13.163Z,3.32
2019-01-10T11:57:41.696Z,3.40
2019-01-10T12:00:21.772Z,3.33
2019-01-10T12:02:50.249Z,3.29
2019-01-10T12:05:18.817Z,3.37
2019-01-10T12:07:47.490Z,3.38
2019-01-10T12:10:16.102Z,3.45
2019-01-10T12:12:44.654Z,3.59
2019-01-10T12:15:13.577Z,3.78
2019-01-10T12:17:42.078Z,3.84
2019-01-10T12:20:13.745Z,3.75
2019-01-10T12:22:42.337Z,3.68
2019-01-10T12:25:12.700Z,3.58
2019-01-10T12:27:41.225Z,3.53
2019-01-10T12:30:19.073Z,3.58
2019-01-10T12:32:47.609Z,3.59
2019-01-10T12:35:16.160Z,3.64
2019-01-10T12:37:44.694Z,3.70
2019-01-10T12:40:15.280Z,3.62
2019-01-10T12:42:44.210Z,3.64
2019-01-10T12:45:20.121Z,3.64
2019-01-10T12:47:48.631Z,3.60
2019-01-10T12:50:22.479Z,3.55
2019-01-10T12:52:50.942Z,3.54
2019-01-10T12:55:19.501Z,3.54
2019-01-10T12:57:48.140Z,3.50
2019-01-10T13:00:22.061Z,3.41
2019-01-10T13:02:50.691Z,3.36
2019-01-10T13:05:19.441Z,3.32
2019-01-10T13:07:47.976Z,3.35
2019-01-10T13:10:17.810Z,3.44
2019-01-10T13:12:47.006Z,3.36
2019-01-10T13:15:17.631Z,3.34
2019-01-10T13:17:46.105Z,3.28
2019-01-10T13:20:14.765Z,3.20
2019-01-10T13:22:43.364Z,3.16
2019-01-10T13:25:14.281Z,3.16
2019-01-10T13:27:43.130Z,3.07
2019-01-10T13:30:17.000Z,3.11
2019-01-10T13:32:45.690Z,3.10
2019-01-10T13:35:14.338Z,3.11
2019-01-10T13:37:43.203Z,3.16
2019-01-10T13:40:12.616Z,3.12
2019-01-10T13:42:41.247Z,3.12
2019-01-10T13:45:11.700Z,3.13
2019-01-10T13:47:40.257Z,3.11
2019-01-10T13:50:11.836Z,3.07
2019-01-10T13:52:40.369Z,3.05
2019-01-10T13:55:11.072Z,3.05
2019-01-10T13:57:39.661Z,2.99
2019-01-10T14:00:11.470Z,2.95
2019-01-10T14:02:39.922Z,2.95
2019-01-10T14:05:10.623Z,2.95
2019-01-10T14:07:38.804Z,2.95
2019-01-10T14:10:10.783Z,2.94
2019-01-10T14:12:39.311Z,2.83
2019-01-10T14:15:11.087Z,2.90
2019-01-10T14:17:39.678Z,2.83
2019-01-10T14:20:10.059Z,2.84
2019-01-10T14:22:38.592Z,2.77
2019-01-10T14:25:07.712Z,2.76
2019-01-10T14:27:36.405Z,2.81
2019-01-10T14:30:10.578Z,2.69
2019-01-10T14:32:39.068Z,2.66
2019-01-10T14:35:07.695Z,2.65
2019-01-10T14:37:36.305Z,2.61
2019-01-10T14:40:07.079Z,2.60
2019-01-10T14:42:35.557Z,2.58
2019-01-10T14:45:05.716Z,2.54
2019-01-10T14:47:34.478Z,2.52
2019-01-10T14:50:03.039Z,2.51
2019-01-10T14:52:31.667Z,2.51
2019-01-10T14:55:00.237Z,2.46
2019-01-10T14:57:28.838Z,2.54
2019-01-10T14:59:57.413Z,2.46
2019-01-10T15:02:25.997Z,2.47
2019-01-10T15:04:54.636Z,2.45
2019-01-10T15:07:23.260Z,2.47
2019-01-10T15:09:51.923Z,2.46
2019-01-10T15:12:20.391Z,2.45
2019-01-10T15:14:49.050Z,2.43
2019-01-10T15:17:17.801Z,2.43
2019-01-10T15:19:46.593Z,2.45
2019-01-10T15:22:15.233Z,2.46
2019-01-10T15:24:43.859Z,2.46
2019-01-10T15:27:12.475Z,2.44
2019-01-10T15:29:41.032Z,2.37
2019-01-10T15:32:09.718Z,2.36
2019-01-10T15:34:38.217Z,2.42
2019-01-10T15:37:06.789Z,2.39
2019-01-10T15:39:38.396Z,2.39
2019-01-10T15:42:06.937Z,2.40
2019-01-10T15:44:35.532Z,2.34
2019-01-10T15:47:04.213Z,2.33
2019-01-10T15:49:32.935Z,2.28
2019-01-10T15:52:01.501Z,2.28
2019-01-10T15:54:29.990Z,2.30
2019-01-10T15:57:00.804Z,2.36
2019-01-10T15:59:28.835Z,2.39
2019-01-10T16:01:57.405Z,2.38
2019-01-10T16:04:26.065Z,2.38
2019-01-10T16:06:54.631Z,2.39
2019-01-10T16:09:25.852Z,2.36
2019-01-10T16:11:54.690Z,2.33
2019-01-10T16:14:23.198Z,2.35
2019-01-10T16:16:52.294Z,2.33
2019-01-10T16:19:20.898Z,2.34
2019-01-10T16:21:49.434Z,2.34
2019-01-10T16:24:17.911Z,2.34
2019-01-10T16:26:46.487Z,2.37
2019-01-10T16:29:15.015Z,2.34
2019-01-10T16:31:43.510Z,2.33
2019-01-10T16:34:11.984Z,2.35
2019-01-10T16:36:40.429Z,2.36
2019-01-10T16:39:09.337Z,2.33
2019-01-10T16:41:37.982Z,2.34
2019-01-10T16:44:06.501Z,2.34
2019-01-10T16:46:35.249Z,2.36
2019-01-10T16:49:03.821Z,2.36
2019-01-10T16:51:32.285Z,2.34
2019-01-10T16:54:00.874Z,2.36
2019-01-10T16:56:29.382Z,2.36
2019-01-10T16:58:57.876Z,2.28
2019-01-10T17:01:26.344Z,2.32
2019-01-10T17:03:54.887Z,2.33
2019-01-10T17:06:23.521Z,2.32
2019-01-10T17:08:52.421Z,2.30
2019-01-10T17:11:20.907Z,2.32
2019-01-10T17:13:49.588Z,2.31
2019-01-10T17:16:18.169Z,2.31
2019-01-10T17:18:46.679Z,2.38
2019-01-10T17:21:15.297Z,2.32
2019-01-10T17:23:43.828Z,2.32
2019-01-10T17:26:12.406Z,2.31
2019-01-10T17:28:41.216Z,2.31
2019-01-10T17:31:09.746Z,2.32
2019-01-10T17:33:38.289Z,2.31
2019-01-10T17:36:06.915Z,2.33
2019-01-10T17:38:35.483Z,2.32
2019-01-10T17:41:04.060Z,2.30
2019-01-10T17:43:32.584Z,2.29
2019-01-10T17:46:01.171Z,2.30
2019-01-10T17:48:29.641Z,2.30
2019-01-10T17:50:58.121Z,2.30
2019-01-10T17:53:26.732Z,2.27
2019-01-10T17:55:55.310Z,2.28
2019-01-10T17:58:23.864Z,2.25
2019-01-10T18:00:52.478Z,2.27
2019-01-10T18:03:21.068Z,2.28
2019-01-10T18:05:49.671Z,2.26
2019-01-10T18:08:18.164Z,2.24
2019-01-10T18:10:46.692Z,2.27
2019-01-10T18:13:15.295Z,2.25
2019-01-10T18:15:43.737Z,2.22
2019-01-10T18:18:12.317Z,2.21
2019-01-10T18:20:40.804Z,2.18
2019-01-10T18:23:09.450Z,2.14
2019-01-10T18:25:38.121Z,2.13
2019-01-10T18:28:06.703Z,2.12
2019-01-10T18:30:35.397Z,2.11
2019-01-10T18:33:04.253Z,2.10
2019-01-10T18:35:32.855Z,2.12
2019-01-10T18:38:01.376Z,2.12
2019-01-10T18:40:29.972Z,2.12
2019-01-10T18:42:58.503Z,2.14
2019-01-10T18:45:30.913Z,2.15
2019-01-10T18:47:59.507Z,2.14
2019-01-10T18:50:28.182Z,2.10
2019-01-10T18:52:56.961Z,2.11
2019-01-10T18:55:25.614Z,2.15
2019-01-10T18:57:54.280Z,2.14
2019-01-10T19:00:27.821Z,2.15
2019-01-10T19:02:56.952Z,2.09
2019-01-10T19:05:25.700Z,2.03
2019-01-10T19:07:54.264Z,2.04
2019-01-10T19:10:23.596Z,2.04
2019-01-10T19:12:52.220Z,2.03
2019-01-10T19:15:20.787Z,2.03
2019-01-10T19:17:49.450Z,2.03
2019-01-10T19:20:21.069Z,2.03
2019-01-10T19:22:49.548Z,2.01
2019-01-10T19:25:18.106Z,1.99
2019-01-10T19:27:46.625Z,1.99
2019-01-10T19:30:17.757Z,2.03
2019-01-10T19:32:46.531Z,2.01
2019-01-10T19:35:15.072Z,1.73
2019-01-10T19:37:43.588Z,1.83
2019-01-10T19:40:17.739Z,1.79
2019-01-10T19:42:46.174Z,1.81
2019-01-10T19:45:16.828Z,1.88
2019-01-10T19:47:45.498Z,1.88
2019-01-10T19:50:17.492Z,1.90
2019-01-10T19:52:46.172Z,1.94
2019-01-10T19:55:16.252Z,1.94
2019-01-10T19:57:44.741Z,1.93
2019-01-10T20:00:19.079Z,1.96
2019-01-10T20:02:48.581Z,1.95
2019-01-10T20:05:17.253Z,1.93
2019-01-10T20:07:45.741Z,1.88
2019-01-10T20:10:15.894Z,1.87
2019-01-10T20:12:44.461Z,1.86
2019-01-10T20:15:13.445Z,1.83
2019-01-10T20:17:42.034Z,1.86
2019-01-10T20:20:31.432Z,1.80
2019-01-10T20:23:00.269Z,1.74
2019-01-10T20:25:28.794Z,1.59
2019-01-10T20:27:57.360Z,1.68
2019-01-10T20:30:25.808Z,1.75
2019-01-10T20:32:54.392Z,1.74
2019-01-10T20:35:22.908Z,1.73
2019-01-10T20:37:51.572Z,1.70
2019-01-10T20:40:20.451Z,1.71
2019-01-10T20:42:49.042Z,1.73
2019-01-10T20:45:17.728Z,1.74
2019-01-10T20:47:46.333Z,1.74
2019-01-10T20:50:18.600Z,1.76
2019-01-10T20:52:47.206Z,1.73
2019-01-10T20:55:17.168Z,1.71
2019-01-10T20:57:45.780Z,1.73
2019-01-10T21:00:17.571Z,1.74
2019-01-10T21:02:46.092Z,1.64
2019-01-10T21:05:14.612Z,1.67
2019-01-10T21:07:44.876Z,1.66
2019-01-10T21:10:15.829Z,1.74
2019-01-10T21:12:44.463Z,1.73
2019-01-10T21:15:15.622Z,1.67
2019-01-10T21:17:44.368Z,1.66
2019-01-10T21:20:13.291Z,1.70
2019-01-10T21:22:41.756Z,1.74
2019-01-10T21:25:12.063Z,1.77
2019-01-10T21:27:40.880Z,1.75
2019-01-10T21:30:17.577Z,1.65
2019-01-10T21:32:47.556Z,1.68
2019-01-10T21:35:16.174Z,1.66
2019-01-10T21:37:44.719Z,1.63
2019-01-10T21:40:15.855Z,1.61
2019-01-10T21:42:44.392Z,1.63
2019-01-10T21:45:18.309Z,1.60
2019-01-10T21:47:46.820Z,1.58
2019-01-10T21:50:17.874Z,1.46
2019-01-10T21:52:46.622Z,1.50
2019-01-10T21:55:15.330Z,1.55
2019-01-10T21:57:43.910Z,1.63
2019-01-10T22:00:18.633Z,1.65
2019-01-10T22:02:47.132Z,1.69
2019-01-10T22:05:15.663Z,1.71
2019-01-10T22:07:44.198Z,1.69
2019-01-10T22:10:13.567Z,1.66
2019-01-10T22:12:42.189Z,1.50
2019-01-10T22:15:13.015Z,1.58
2019-01-10T22:17:41.675Z,1.58
2019-01-10T22:20:15.971Z,1.48
2019-01-10T22:22:44.538Z,1.54
2019-01-10T22:25:13.187Z,1.57
2019-01-10T22:27:41.793Z,1.62
2019-01-10T22:30:13.266Z,1.65
2019-01-10T22:32:41.852Z,1.64
2019-01-10T22:35:12.979Z,1.66
2019-01-10T22:37:43.169Z,1.65
2019-01-10T22:40:14.886Z,1.64
2019-01-10T22:42:45.298Z,1.43
2019-01-10T22:45:14.906Z,1.40
2019-01-10T22:47:43.619Z,1.33
2019-01-10T22:50:17.580Z,1.30
2019-01-10T22:52:46.368Z,1.38
2019-01-10T22:55:16.208Z,1.45
2019-01-10T22:57:44.972Z,1.40
2019-01-10T23:00:49.030Z,1.37
2019-01-10T23:03:17.643Z,1.20
2019-01-10T23:05:46.317Z,1.15
2019-01-10T23:08:14.952Z,1.20
2019-01-10T23:10:43.899Z,1.26
2019-01-10T23:13:12.475Z,1.23
2019-01-10T23:15:40.988Z,1.22
2019-01-10T23:18:09.822Z,1.20
2019-01-10T23:20:38.379Z,1.03
2019-01-10T23:23:09.813Z,1.07
2019-01-10T23:25:38.369Z,1.07
2019-01-10T23:28:06.936Z,1.01
2019-01-10T23:30:52.974Z,1.03
2019-01-10T23:33:21.729Z,0.95
2019-01-10T23:35:53.665Z,1.01
2019-01-10T23:38:23.804Z,0.97
2019-01-10T23:40:52.464Z,0.87
2019-01-10T23:43:21.281Z,0.97
2019-01-10T23:45:49.898Z,1.07
2019-01-10T23:48:18.447Z,1.15
2019-01-10T23:50:47.058Z,0.96
2019-01-10T23:53:15.607Z,0.92
2019-01-10T23:55:44.387Z,0.99
2019-01-10T23:58:12.998Z,1.03
